Time;durP1;ratioP1;P1;durP2;ratioP2;P2;SDS_P1;SDS_P2;PMS_P1;PMS_P2;Temp;Humidity;BMP_temperature;BMP_pressure;BME280_temperature;BME280_humidity;BME280_pressure;Samples;Min_cycle;Max_cycle;Signal;HPM_P1;HPM_P2
2021/06/03 00:00:46;;;;;;;;;;;23.10;37.20;;;;;;1626252;72;820;-69
2021/06/03 00:02:48;;;;;;;;;;;23.10;37.20;;;;;;1626301;72;1920;-69
2021/06/03 00:04:49;;;;;;;;;;;23.10;37.20;;;;;;1626650;72;635;-69
2021/06/03 00:06:51;;;;;;;;;;;23.10;37.10;;;;;;1623454;72;758;-70
2021/06/03 00:08:53;;;;;;;;;;;23.10;37.10;;;;;;1620204;72;827;-70
2021/06/03 00:10:57;;;;;;;;;;;23.10;37.00;;;;;;1633588;72;767;-69
2021/06/03 00:12:59;;;;;;;;;;;23.10;36.90;;;;;;1621366;72;1771;-69
2021/06/03 00:15:00;;;;;;;;;;;23.10;36.80;;;;;;1626704;72;776;-69
2021/06/03 00:17:02;;;;;;;;;;;23.10;36.60;;;;;;1624064;72;952;-69
2021/06/03 00:19:05;;;;;;;;;;;23.10;36.70;;;;;;1631812;72;696;-69
2021/06/03 00:21:07;;;;;;;;;;;23.20;36.50;;;;;;1627235;72;739;-68
2021/06/03 00:23:09;;;;;;;;;;;23.10;36.50;;;;;;1619876;72;1895;-69
2021/06/03 00:25:11;;;;;;;;;;;23.10;36.50;;;;;;1632603;72;1032;-69
2021/06/03 00:27:13;;;;;;;;;;;23.10;36.40;;;;;;1634033;72;764;-69
2021/06/03 00:29:16;;;;;;;;;;;23.10;36.30;;;;;;1631783;72;726;-71
2021/06/03 00:31:18;;;;;;;;;;;23.10;36.30;;;;;;1627787;72;788;-68
2021/06/03 00:33:19;;;;;;;;;;;23.20;36.20;;;;;;1626327;72;1131;-68
2021/06/03 00:35:22;;;;;;;;;;;23.20;36.20;;;;;;1622639;72;747;-69
2021/06/03 00:37:24;;;;;;;;;;;23.10;36.30;;;;;;1636281;72;806;-70
2021/06/03 00:39:26;;;;;;;;;;;23.10;36.20;;;;;;1639608;72;743;-68
2021/06/03 00:41:28;;;;;;;;;;;23.20;36.20;;;;;;1626818;72;836;-68
2021/06/03 00:43:30;;;;;;;;;;;23.20;36.30;;;;;;1634819;71;1947;-66
2021/06/03 00:45:33;;;;;;;;;;;23.20;36.20;;;;;;1628824;72;797;-69
2021/06/03 00:47:35;;;;;;;;;;;23.20;35.80;;;;;;1637146;72;819;-69
2021/06/03 00:49:37;;;;;;;;;;;23.10;35.80;;;;;;1633945;72;767;-69
2021/06/03 00:51:39;;;;;;;;;;;23.20;35.70;;;;;;1625899;72;758;-71
2021/06/03 00:53:43;;;;;;;;;;;23.20;35.70;;;;;;1629332;71;1118;-71
2021/06/03 00:55:46;;;;;;;;;;;23.20;35.70;;;;;;1613573;72;1986;-70
2021/06/03 00:57:48;;;;;;;;;;;23.20;35.70;;;;;;1625491;72;840;-70
2021/06/03 00:59:49;;;;;;;;;;;23.10;35.70;;;;;;1623311;72;794;-71
2021/06/03 01:01:51;;;;;;;;;;;23.10;35.40;;;;;;1627883;72;783;-70
2021/06/03 01:03:53;;;;;;;;;;;23.10;35.60;;;;;;1624750;72;1931;-70
2021/06/03 01:05:59;;;;;;;;;;;23.10;35.40;;;;;;1630771;72;672;-70
2021/06/03 01:08:02;;;;;;;;;;;23.20;35.50;;;;;;1623909;72;806;-69
2021/06/03 01:10:05;;;;;;;;;;;23.20;35.70;;;;;;1626479;72;715;-70
2021/06/03 01:12:12;;;;;;;;;;;23.20;35.80;;;;;;1628338;72;1930;-69
2021/06/03 01:14:15;;;;;;;;;;;23.10;35.90;;;;;;1624223;72;1134;-70
2021/06/03 01:16:17;;;;;;;;;;;23.10;36.10;;;;;;1638203;72;810;-68
2021/06/03 01:18:19;;;;;;;;;;;23.10;36.10;;;;;;1633201;72;717;-69
2021/06/03 01:20:21;;;;;;;;;;;23.10;36.00;;;;;;1634117;72;739;-69
2021/06/03 01:22:43;;;;;;;;;;;23.10;36.00;;;;;;1620127;72;1933;-69
2021/06/03 01:24:45;;;;;;;;;;;23.10;36.10;;;;;;1618316;72;2016;-68
2021/06/03 01:26:47;;;;;;;;;;;23.10;36.10;;;;;;1635762;72;796;-68
2021/06/03 01:28:49;;;;;;;;;;;23.10;36.10;;;;;;1637537;72;786;-68
2021/06/03 01:30:52;;;;;;;;;;;23.10;36.00;;;;;;1629264;72;827;-69
2021/06/03 01:32:59;;;;;;;;;;;23.10;36.00;;;;;;1621954;72;1128;-69
2021/06/03 01:35:01;;;;;;;;;;;23.10;36.00;;;;;;1628916;72;1664;-72
2021/06/03 01:37:03;;;;;;;;;;;23.10;36.00;;;;;;1625040;72;786;-70
2021/06/03 01:39:05;;;;;;;;;;;23.10;36.00;;;;;;1630760;72;756;-72
2021/06/03 01:41:08;;;;;;;;;;;23.10;36.10;;;;;;1633854;72;771;-71
2021/06/03 01:43:10;;;;;;;;;;;23.10;36.10;;;;;;1621962;72;1928;-71
2021/06/03 01:45:12;;;;;;;;;;;23.00;35.90;;;;;;1625727;72;720;-71
2021/06/03 01:47:14;;;;;;;;;;;23.00;35.80;;;;;;1623868;72;667;-70
2021/06/03 01:49:16;;;;;;;;;;;23.00;35.90;;;;;;1628813;72;673;-70
2021/06/03 01:51:18;;;;;;;;;;;23.10;36.00;;;;;;1622647;72;829;-70
2021/06/03 01:53:21;;;;;;;;;;;23.00;35.90;;;;;;1638882;71;1097;-70
2021/06/03 01:55:23;;;;;;;;;;;23.00;35.80;;;;;;1633702;72;805;-70
2021/06/03 01:57:25;;;;;;;;;;;23.10;36.00;;;;;;1629832;72;769;-70
2021/06/03 01:59:27;;;;;;;;;;;23.00;35.80;;;;;;1631509;72;698;-70
2021/06/03 02:01:30;;;;;;;;;;;23.00;35.90;;;;;;1623510;72;726;-71
2021/06/03 02:03:32;;;;;;;;;;;23.00;35.80;;;;;;1631644;71;1910;-70
2021/06/03 02:05:34;;;;;;;;;;;23.00;36.00;;;;;;1625692;72;757;-68
2021/06/03 02:07:36;;;;;;;;;;;23.00;36.00;;;;;;1625588;72;663;-70
2021/06/03 02:09:38;;;;;;;;;;;23.10;36.00;;;;;;1620819;72;950;-70
2021/06/03 02:11:40;;;;;;;;;;;23.10;35.90;;;;;;1621369;72;752;-70
2021/06/03 02:13:43;;;;;;;;;;;23.10;35.80;;;;;;1623497;72;1166;-71
2021/06/03 02:15:47;;;;;;;;;;;23.10;35.60;;;;;;1627512;72;2301;-72
2021/06/03 02:17:50;;;;;;;;;;;23.10;35.70;;;;;;1618188;72;1669;-70
2021/06/03 02:19:53;;;;;;;;;;;23.10;35.70;;;;;;1624975;72;928;-71
2021/06/03 02:21:55;;;;;;;;;;;23.10;35.80;;;;;;1621031;72;678;-73
2021/06/03 02:23:57;;;;;;;;;;;23.10;35.70;;;;;;1606325;73;1936;-69
2021/06/03 02:25:59;;;;;;;;;;;23.10;35.80;;;;;;1635067;72;838;-69
2021/06/03 02:28:01;;;;;;;;;;;23.10;35.50;;;;;;1614485;72;712;-72
2021/06/03 02:30:05;;;;;;;;;;;23.10;35.50;;;;;;1622866;72;731;-69
2021/06/03 02:32:07;;;;;;;;;;;23.10;35.50;;;;;;1627505;72;877;-71
2021/06/03 02:34:09;;;;;;;;;;;23.10;35.70;;;;;;1631500;72;1120;-71
2021/06/03 02:36:11;;;;;;;;;;;23.10;35.70;;;;;;1634123;72;695;-71
2021/06/03 02:38:15;;;;;;;;;;;23.10;35.60;;;;;;1620776;72;732;-74
2021/06/03 02:40:17;;;;;;;;;;;23.10;35.30;;;;;;1628144;72;1002;-72
2021/06/03 02:42:19;;;;;;;;;;;23.10;35.50;;;;;;1638414;72;959;-72
2021/06/03 02:44:21;;;;;;;;;;;23.10;35.50;;;;;;1625316;72;1948;-73
2021/06/03 02:46:23;;;;;;;;;;;23.20;35.60;;;;;;1631693;72;835;-72
2021/06/03 02:48:25;;;;;;;;;;;23.10;35.30;;;;;;1615021;72;780;-72
2021/06/03 02:50:27;;;;;;;;;;;23.10;35.50;;;;;;1628127;72;742;-72
2021/06/03 02:52:29;;;;;;;;;;;23.10;35.50;;;;;;1636225;72;807;-69
2021/06/03 02:54:31;;;;;;;;;;;23.10;35.60;;;;;;1577506;71;215530;-55
2021/06/03 02:56:33;;;;;;;;;;;23.20;35.20;;;;;;1567651;75;754;-55
2021/06/03 02:58:34;;;;;;;;;;;23.10;35.20;;;;;;1568514;75;761;-55
2021/06/03 03:00:36;;;;;;;;;;;23.10;35.20;;;;;;1560755;75;1193;-55
2021/06/03 03:02:38;;;;;;;;;;;23.10;35.30;;;;;;1531113;76;692;-53
2021/06/03 03:04:40;;;;;;;;;;;23.10;35.20;;;;;;1526042;76;1940;-55
2021/06/03 03:06:42;;;;;;;;;;;23.20;35.40;;;;;;1526761;76;710;-55
2021/06/03 03:08:44;;;;;;;;;;;23.20;35.30;;;;;;1523548;76;698;-55
2021/06/03 03:10:47;;;;;;;;;;;23.20;35.60;;;;;;1520301;76;1094;-55
2021/06/03 03:12:49;;;;;;;;;;;23.20;35.40;;;;;;1525908;76;2018;-55
2021/06/03 03:14:51;;;;;;;;;;;23.10;35.50;;;;;;1525351;76;717;-55
2021/06/03 03:16:54;;;;;;;;;;;23.10;35.50;;;;;;1528079;76;741;-53
2021/06/03 03:18:56;;;;;;;;;;;23.10;35.30;;;;;;1526682;76;817;-56
2021/06/03 03:20:58;;;;;;;;;;;23.00;35.40;;;;;;1522746;76;1121;-56
2021/06/03 03:23:00;;;;;;;;;;;23.10;35.60;;;;;;1526160;76;1944;-55
2021/06/03 03:25:02;;;;;;;;;;;23.10;35.50;;;;;;1524230;76;885;-53
2021/06/03 03:27:04;;;;;;;;;;;23.00;35.70;;;;;;1525991;76;764;-55
2021/06/03 03:29:06;;;;;;;;;;;23.10;35.70;;;;;;1529088;76;714;-54
2021/06/03 03:31:08;;;;;;;;;;;23.10;35.80;;;;;;1525384;76;1136;-56
2021/06/03 03:33:10;;;;;;;;;;;23.10;36.00;;;;;;1521966;76;715;-52
2021/06/03 03:35:12;;;;;;;;;;;23.00;35.70;;;;;;1524030;76;686;-55
2021/06/03 03:37:14;;;;;;;;;;;23.10;35.80;;;;;;1529479;76;788;-56
2021/06/03 03:39:16;;;;;;;;;;;23.10;36.00;;;;;;1506099;76;728;-55
2021/06/03 03:41:18;;;;;;;;;;;23.00;36.00;;;;;;1525195;76;1142;-56
2021/06/03 03:43:20;;;;;;;;;;;23.10;36.30;;;;;;1520901;76;1941;-56
2021/06/03 03:45:23;;;;;;;;;;;23.10;36.50;;;;;;1522315;76;851;-55
2021/06/03 03:47:25;;;;;;;;;;;23.10;36.30;;;;;;1548188;76;708;-56
2021/06/03 03:49:27;;;;;;;;;;;23.10;36.40;;;;;;1523554;76;773;-55
2021/06/03 03:51:28;;;;;;;;;;;23.10;36.70;;;;;;1521446;76;1179;-56
2021/06/03 03:53:30;;;;;;;;;;;23.10;36.50;;;;;;1519303;76;808;-55
2021/06/03 03:55:32;;;;;;;;;;;23.10;36.50;;;;;;1527326;76;798;-55
2021/06/03 03:57:34;;;;;;;;;;;23.10;36.80;;;;;;1529078;76;771;-55
2021/06/03 03:59:37;;;;;;;;;;;23.10;37.00;;;;;;1528987;76;770;-55
2021/06/03 04:01:38;;;;;;;;;;;23.10;37.10;;;;;;1528236;76;1162;-55
2021/06/03 04:03:40;;;;;;;;;;;23.10;37.10;;;;;;1522341;76;2118;-55
2021/06/03 04:05:42;;;;;;;;;;;23.00;37.00;;;;;;1526761;76;741;-55
2021/06/03 04:07:44;;;;;;;;;;;23.10;36.80;;;;;;1520768;76;815;-52
2021/06/03 04:09:46;;;;;;;;;;;23.10;36.80;;;;;;1519515;76;821;-56
2021/06/03 04:11:48;;;;;;;;;;;23.10;36.80;;;;;;1518028;76;1136;-55
2021/06/03 04:13:50;;;;;;;;;;;23.10;36.90;;;;;;1524240;76;766;-56
2021/06/03 04:15:52;;;;;;;;;;;23.10;37.10;;;;;;1521046;76;783;-55
2021/06/03 04:17:53;;;;;;;;;;;23.10;36.90;;;;;;1520554;76;838;-55
2021/06/03 04:19:55;;;;;;;;;;;23.10;37.00;;;;;;1530254;76;711;-56
2021/06/03 04:21:58;;;;;;;;;;;23.10;37.10;;;;;;1517326;76;1102;-54
2021/06/03 04:24:00;;;;;;;;;;;23.10;37.10;;;;;;1518608;76;1920;-55
2021/06/03 04:26:02;;;;;;;;;;;23.10;37.10;;;;;;1517640;76;758;-55
2021/06/03 04:28:05;;;;;;;;;;;23.10;37.10;;;;;;1521453;76;691;-55
2021/06/03 04:30:09;;;;;;;;;;;23.10;37.30;;;;;;1512144;76;1134;-53
2021/06/03 04:32:11;;;;;;;;;;;23.10;37.20;;;;;;1520896;76;797;-56
2021/06/03 04:34:13;;;;;;;;;;;23.10;36.90;;;;;;1511725;76;767;-55
2021/06/03 04:36:15;;;;;;;;;;;23.00;36.70;;;;;;1531416;76;747;-55
2021/06/03 04:38:16;;;;;;;;;;;23.10;37.00;;;;;;1518765;76;801;-55
2021/06/03 04:40:19;;;;;;;;;;;23.10;36.80;;;;;;1520065;76;1143;-55
2021/06/03 04:42:21;;;;;;;;;;;23.10;37.00;;;;;;1522703;76;806;-56
2021/06/03 04:44:23;;;;;;;;;;;23.10;36.80;;;;;;1520628;76;1947;-55
2021/06/03 04:46:25;;;;;;;;;;;23.10;37.30;;;;;;1527070;76;768;-56
2021/06/03 04:48:27;;;;;;;;;;;23.10;37.30;;;;;;1521553;76;901;-55
2021/06/03 04:50:29;;;;;;;;;;;23.10;37.10;;;;;;1529805;76;1136;-52
2021/06/03 04:52:31;;;;;;;;;;;23.10;37.30;;;;;;1521202;76;816;-55
2021/06/03 04:54:33;;;;;;;;;;;23.10;37.60;;;;;;1511816;76;923;-53
2021/06/03 04:56:35;;;;;;;;;;;23.00;37.60;;;;;;1521421;76;709;-52
2021/06/03 04:58:37;;;;;;;;;;;23.10;37.80;;;;;;1519251;76;736;-55
2021/06/03 05:00:39;;;;;;;;;;;23.10;37.70;;;;;;1521136;76;1181;-56
2021/06/03 05:02:41;;;;;;;;;;;23.10;37.80;;;;;;1523758;76;765;-55
2021/06/03 05:04:43;;;;;;;;;;;23.10;37.90;;;;;;1524854;76;1940;-54
2021/06/03 05:06:45;;;;;;;;;;;23.10;38.10;;;;;;1516510;76;793;-53
2021/06/03 05:08:47;;;;;;;;;;;23.10;38.10;;;;;;1525975;76;791;-55
2021/06/03 05:10:49;;;;;;;;;;;23.10;38.40;;;;;;1523579;76;1143;-55
2021/06/03 05:12:50;;;;;;;;;;;23.10;38.40;;;;;;1515919;76;691;-55
2021/06/03 05:14:52;;;;;;;;;;;23.10;38.20;;;;;;1527261;76;783;-53
2021/06/03 05:16:54;;;;;;;;;;;23.20;38.10;;;;;;1523222;76;749;-54
2021/06/03 05:18:56;;;;;;;;;;;23.20;38.20;;;;;;1521840;76;779;-56
2021/06/03 05:20:58;;;;;;;;;;;23.20;38.20;;;;;;1525634;76;1135;-55
2021/06/03 05:23:00;;;;;;;;;;;23.20;38.30;;;;;;1522011;76;734;-53
2021/06/03 05:25:02;;;;;;;;;;;23.20;38.20;;;;;;1526475;76;1943;-56
2021/06/03 05:27:04;;;;;;;;;;;23.20;38.30;;;;;;1522448;76;913;-55
2021/06/03 05:29:07;;;;;;;;;;;23.20;38.30;;;;;;1525558;76;802;-55
2021/06/03 05:31:09;;;;;;;;;;;23.20;38.40;;;;;;1525012;76;1135;-55
2021/06/03 05:33:11;;;;;;;;;;;23.20;38.40;;;;;;1511540;76;716;-55
2021/06/03 05:35:14;;;;;;;;;;;23.20;38.40;;;;;;1521750;76;823;-55
2021/06/03 05:37:16;;;;;;;;;;;23.20;38.70;;;;;;1527462;75;739;-52
2021/06/03 05:39:17;;;;;;;;;;;23.20;38.60;;;;;;1518450;76;779;-55
2021/06/03 05:41:19;;;;;;;;;;;23.20;38.60;;;;;;1523008;76;1145;-56
2021/06/03 05:43:21;;;;;;;;;;;23.20;38.60;;;;;;1519693;76;760;-54
2021/06/03 05:45:24;;;;;;;;;;;23.20;38.70;;;;;;1527547;76;1939;-55
2021/06/03 05:47:25;;;;;;;;;;;23.20;38.70;;;;;;1522186;76;812;-55
2021/06/03 05:49:28;;;;;;;;;;;23.30;38.90;;;;;;1518699;76;781;-56
2021/06/03 05:51:30;;;;;;;;;;;23.20;38.80;;;;;;1513840;76;1150;-55
2021/06/03 05:53:32;;;;;;;;;;;23.30;38.90;;;;;;1525775;76;698;-56
2021/06/03 05:55:34;;;;;;;;;;;23.30;38.90;;;;;;1520679;76;794;-56
2021/06/03 05:57:36;;;;;;;;;;;23.30;38.90;;;;;;1526061;76;803;-54
2021/06/03 05:59:38;;;;;;;;;;;23.40;38.90;;;;;;1524880;76;788;-55
2021/06/03 06:01:40;;;;;;;;;;;23.20;39.20;;;;;;1509536;76;1177;-52
2021/06/03 06:03:46;;;;;;;;;;;23.30;39.40;;;;;;1513102;76;780;-55
2021/06/03 06:06:10;;;;;;;;;;;23.20;39.30;;;;;;1526334;76;1942;-54
2021/06/03 06:08:01;;;;;;;;;;;23.30;39.40;;;;;;1518876;76;1729;-54
2021/06/03 06:10:04;;;;;;;;;;;23.30;39.40;;;;;;1526526;76;758;-55
2021/06/03 06:12:06;;;;;;;;;;;23.30;39.70;;;;;;1527724;76;1159;-55
2021/06/03 06:14:08;;;;;;;;;;;23.30;39.50;;;;;;1515225;76;759;-56
2021/06/03 06:16:10;;;;;;;;;;;23.30;39.70;;;;;;1520602;76;742;-56
2021/06/03 06:18:12;;;;;;;;;;;23.40;39.80;;;;;;1524233;76;665;-55
2021/06/03 06:20:14;;;;;;;;;;;23.30;39.90;;;;;;1512523;76;1180;-55
2021/06/03 06:22:16;;;;;;;;;;;23.30;39.90;;;;;;1524075;76;684;-55
2021/06/03 06:24:18;;;;;;;;;;;23.40;39.90;;;;;;1521909;76;1950;-55
2021/06/03 06:26:20;;;;;;;;;;;23.30;39.90;;;;;;1518503;76;838;-55
2021/06/03 06:28:21;;;;;;;;;;;23.40;39.90;;;;;;1518362;76;780;-56
2021/06/03 06:30:23;;;;;;;;;;;23.40;39.90;;;;;;1523121;76;1086;-55
2021/06/03 06:32:26;;;;;;;;;;;23.40;39.90;;;;;;1522088;76;682;-55
2021/06/03 06:34:28;;;;;;;;;;;23.30;40.00;;;;;;1520037;76;771;-56
2021/06/03 06:36:30;;;;;;;;;;;23.30;40.40;;;;;;1522781;76;940;-55
2021/06/03 06:38:31;;;;;;;;;;;23.40;40.50;;;;;;1519640;76;769;-54
2021/06/03 06:40:35;;;;;;;;;;;23.50;40.50;;;;;;1521651;76;1175;-55
2021/06/03 06:42:37;;;;;;;;;;;23.30;40.40;;;;;;1505234;76;784;-58
2021/06/03 06:44:39;;;;;;;;;;;23.30;40.50;;;;;;1527004;76;1951;-56
2021/06/03 06:46:41;;;;;;;;;;;23.30;40.70;;;;;;1531552;76;745;-56
2021/06/03 06:48:43;;;;;;;;;;;23.30;40.50;;;;;;1532457;76;816;-56
2021/06/03 06:50:45;;;;;;;;;;;23.30;40.50;;;;;;1527104;76;1147;-54
2021/06/03 06:52:47;;;;;;;;;;;23.40;40.50;;;;;;1534828;76;685;-56
2021/06/03 06:54:49;;;;;;;;;;;23.30;40.50;;;;;;1523272;76;775;-56
2021/06/03 06:56:51;;;;;;;;;;;23.30;40.60;;;;;;1517121;76;792;-57
2021/06/03 06:58:53;;;;;;;;;;;23.20;40.70;;;;;;1512956;76;747;-54
2021/06/03 07:00:55;;;;;;;;;;;23.20;40.90;;;;;;1522902;76;1206;-54
2021/06/03 07:02:57;;;;;;;;;;;23.30;40.90;;;;;;1525885;76;723;-55
2021/06/03 07:04:59;;;;;;;;;;;23.40;41.00;;;;;;1524452;76;1951;-56
2021/06/03 07:07:01;;;;;;;;;;;23.50;41.20;;;;;;1523115;76;806;-53
2021/06/03 07:09:03;;;;;;;;;;;23.50;41.20;;;;;;1530262;76;773;-56
2021/06/03 07:11:05;;;;;;;;;;;23.50;41.30;;;;;;1522291;76;1154;-54
2021/06/03 07:13:07;;;;;;;;;;;23.40;41.10;;;;;;1515389;76;732;-56
2021/06/03 07:15:10;;;;;;;;;;;23.50;41.50;;;;;;1527400;76;807;-56
2021/06/03 07:17:12;;;;;;;;;;;23.50;41.30;;;;;;1527349;76;639;-56
2021/06/03 07:19:14;;;;;;;;;;;23.50;41.50;;;;;;1524985;76;826;-54
2021/06/03 07:21:16;;;;;;;;;;;23.60;41.50;;;;;;1525474;76;1147;-54
2021/06/03 07:23:19;;;;;;;;;;;23.50;41.80;;;;;;1525729;76;754;-53
2021/06/03 07:25:22;;;;;;;;;;;23.50;41.70;;;;;;1527602;76;1933;-55
2021/06/03 07:27:23;;;;;;;;;;;23.40;41.40;;;;;;1528020;76;785;-55
2021/06/03 07:29:25;;;;;;;;;;;23.50;41.30;;;;;;1522881;76;926;-55
2021/06/03 07:31:28;;;;;;;;;;;23.60;41.10;;;;;;1527030;76;1141;-56
2021/06/03 07:33:30;;;;;;;;;;;23.60;41.00;;;;;;1528923;76;723;-56
2021/06/03 07:35:32;;;;;;;;;;;23.60;41.20;;;;;;1528185;76;827;-56
2021/06/03 07:37:34;;;;;;;;;;;23.60;41.20;;;;;;1526113;76;706;-56
2021/06/03 07:39:36;;;;;;;;;;;23.50;41.40;;;;;;1526703;76;791;-56
2021/06/03 07:41:38;;;;;;;;;;;23.50;41.30;;;;;;1526964;76;1093;-55
2021/06/03 07:43:40;;;;;;;;;;;23.50;41.40;;;;;;1513389;76;803;-55
2021/06/03 07:45:42;;;;;;;;;;;23.50;41.70;;;;;;1530026;76;1924;-54
2021/06/03 07:47:43;;;;;;;;;;;23.50;41.70;;;;;;1524372;76;778;-56
2021/06/03 07:49:45;;;;;;;;;;;23.50;41.70;;;;;;1522619;76;735;-55
2021/06/03 07:51:47;;;;;;;;;;;23.50;41.80;;;;;;1525880;76;1096;-54
2021/06/03 07:53:49;;;;;;;;;;;23.50;41.80;;;;;;1527300;76;737;-56
2021/06/03 07:55:51;;;;;;;;;;;23.50;41.40;;;;;;1517547;76;721;-57
2021/06/03 07:57:54;;;;;;;;;;;23.50;41.30;;;;;;1512841;76;799;-55
2021/06/03 07:59:56;;;;;;;;;;;23.50;41.30;;;;;;1509118;76;805;-54
2021/06/03 08:01:58;;;;;;;;;;;23.50;41.40;;;;;;1514794;76;1264;-56
2021/06/03 08:04:00;;;;;;;;;;;23.50;41.30;;;;;;1513340;76;959;-56
2021/06/03 08:06:02;;;;;;;;;;;23.50;41.40;;;;;;1515974;76;1956;-56
2021/06/03 08:08:04;;;;;;;;;;;23.50;41.40;;;;;;1509795;76;654;-56
2021/06/03 08:10:07;;;;;;;;;;;23.50;41.50;;;;;;1513524;76;711;-56
2021/06/03 08:12:09;;;;;;;;;;;23.50;41.60;;;;;;1530883;76;802;-56
2021/06/03 08:14:11;;;;;;;;;;;23.50;41.30;;;;;;1474413;79;716;-56
2021/06/03 08:16:13;;;;;;;;;;;23.50;41.40;;;;;;1482233;79;753;-56
2021/06/03 08:18:15;;;;;;;;;;;23.50;41.60;;;;;;1473478;79;854;-56
2021/06/03 08:20:18;;;;;;;;;;;23.50;41.60;;;;;;1479249;79;1113;-56
2021/06/03 08:22:20;;;;;;;;;;;23.40;41.40;;;;;;1470874;79;1765;-56
2021/06/03 08:24:22;;;;;;;;;;;23.50;41.70;;;;;;1475529;79;688;-55
2021/06/03 08:26:27;;;;;;;;;;;23.40;42.20;;;;;;1476090;79;1970;-54
2021/06/03 08:28:27;;;;;;;;;;;23.50;42.60;;;;;;1478630;79;1637;-57
2021/06/03 08:30:29;;;;;;;;;;;23.50;42.70;;;;;;1478829;79;1170;-55
2021/06/03 08:32:31;;;;;;;;;;;23.50;42.90;;;;;;1471441;79;950;-57
2021/06/03 08:34:33;;;;;;;;;;;23.50;43.10;;;;;;1480347;79;770;-55
2021/06/03 08:36:35;;;;;;;;;;;23.50;43.20;;;;;;1474752;79;776;-57
2021/06/03 08:38:37;;;;;;;;;;;23.50;43.10;;;;;;1476182;79;744;-55
2021/06/03 08:40:40;;;;;;;;;;;23.50;42.90;;;;;;1474391;79;1163;-54
2021/06/03 08:42:42;;;;;;;;;;;23.40;42.80;;;;;;1477843;79;765;-56
2021/06/03 08:44:44;;;;;;;;;;;23.50;42.90;;;;;;1480228;79;706;-57
2021/06/03 08:46:46;;;;;;;;;;;23.50;42.70;;;;;;1474936;79;1960;-57
2021/06/03 08:48:48;;;;;;;;;;;23.40;42.40;;;;;;1472511;79;823;-57
2021/06/03 08:50:54;;;;;;;;;;;23.40;42.50;;;;;;1482631;79;1146;-56
2021/06/03 08:52:57;;;;;;;;;;;23.40;42.40;;;;;;1482413;79;773;-57
2021/06/03 08:54:59;;;;;;;;;;;23.40;42.20;;;;;;1561101;73;2092;-53
2021/06/03 08:57:01;;;;;;;;;;;23.40;42.20;;;;;;1588090;73;755;-57
2021/06/03 08:59:03;;;;;;;;;;;23.40;42.10;;;;;;1592570;73;765;-54
2021/06/03 09:01:05;;;;;;;;;;;23.40;42.00;;;;;;1574866;73;1202;-53
2021/06/03 09:03:08;;;;;;;;;;;23.40;41.90;;;;;;1562519;74;711;-54
2021/06/03 09:05:11;;;;;;;;;;;23.30;41.80;;;;;;1562919;75;1932;-54
2021/06/03 09:07:29;;;;;;;;;;;23.40;41.70;;;;;;1562602;75;706;-54
2021/06/03 09:09:31;;;;;;;;;;;23.40;41.70;;;;;;1564280;73;749;-54
2021/06/03 09:11:33;;;;;;;;;;;23.30;41.70;;;;;;1567710;75;1184;-54
2021/06/03 09:13:36;;;;;;;;;;;23.40;41.70;;;;;;1566106;74;734;-54
2021/06/03 09:15:38;;;;;;;;;;;23.30;41.70;;;;;;1562456;75;805;-54
2021/06/03 09:17:46;;;;;;;;;;;23.40;41.70;;;;;;1564008;75;678;-55
2021/06/03 09:19:52;;;;;;;;;;;23.30;41.60;;;;;;1569633;75;705;-54
2021/06/03 09:21:53;;;;;;;;;;;23.40;41.50;;;;;;1569968;74;1092;-54
2021/06/03 09:23:59;;;;;;;;;;;23.40;41.50;;;;;;1566694;74;763;-55
2021/06/03 09:26:02;;;;;;;;;;;23.40;41.50;;;;;;1565199;75;1927;-54
2021/06/03 09:28:18;;;;;;;;;;;23.30;41.50;;;;;;1558023;75;1555;-54
2021/06/03 09:30:20;;;;;;;;;;;23.30;41.40;;;;;;1555350;75;1134;-56
2021/06/03 09:32:22;;;;;;;;;;;23.40;41.50;;;;;;1573946;75;738;-56
2021/06/03 09:34:23;;;;;;;;;;;23.30;41.50;;;;;;1571560;74;715;-56
2021/06/03 09:36:32;;;;;;;;;;;23.30;41.50;;;;;;1568673;75;695;-55
2021/06/03 09:38:34;;;;;;;;;;;23.40;41.50;;;;;;1575417;74;756;-54
2021/06/03 09:40:36;;;;;;;;;;;23.40;41.50;;;;;;1569557;74;1211;-55
2021/06/03 09:42:38;;;;;;;;;;;23.40;41.50;;;;;;1539679;76;699;-56
2021/06/03 09:44:40;;;;;;;;;;;23.40;41.40;;;;;;1568646;75;663;-57
2021/06/03 09:46:43;;;;;;;;;;;23.40;41.40;;;;;;1565516;75;1930;-55
2021/06/03 09:48:45;;;;;;;;;;;23.40;41.30;;;;;;1570449;75;802;-55
2021/06/03 09:50:47;;;;;;;;;;;23.40;41.30;;;;;;1562367;74;1133;-54
2021/06/03 09:52:49;;;;;;;;;;;23.40;41.30;;;;;;1564062;75;717;-55
2021/06/03 09:54:58;;;;;;;;;;;23.40;41.30;;;;;;1572682;73;789;-56
2021/06/03 09:57:01;;;;;;;;;;;23.40;41.30;;;;;;1566589;74;737;-54
2021/06/03 09:59:04;;;;;;;;;;;23.40;41.30;;;;;;1558890;75;1000;-55
2021/06/03 10:01:06;;;;;;;;;;;23.40;41.30;;;;;;1560028;74;1104;-56
2021/06/03 10:03:08;;;;;;;;;;;23.40;41.10;;;;;;1558201;74;1082;-54
2021/06/03 10:05:11;;;;;;;;;;;23.30;41.10;;;;;;1566271;75;738;-54
2021/06/03 10:07:14;;;;;;;;;;;23.30;41.30;;;;;;1560096;75;1927;-56
2021/06/03 10:09:16;;;;;;;;;;;23.30;41.40;;;;;;1562775;75;816;-56
2021/06/03 10:11:36;;;;;;;;;;;23.30;41.50;;;;;;1565151;74;1179;-56
2021/06/03 10:13:39;;;;;;;;;;;23.30;41.60;;;;;;1550667;75;705;-56
2021/06/03 10:15:43;;;;;;;;;;;23.40;42.20;;;;;;1559169;75;1742;-56
2021/06/03 10:17:50;;;;;;;;;;;23.20;42.20;;;;;;1565855;75;695;-54
2021/06/03 10:19:52;;;;;;;;;;;23.30;42.30;;;;;;1568471;75;690;-54
2021/06/03 10:22:10;;;;;;;;;;;23.20;42.50;;;;;;1561791;73;1130;-53
2021/06/03 10:24:12;;;;;;;;;;;23.20;42.60;;;;;;1545366;76;1167;-54
2021/06/03 10:26:14;;;;;;;;;;;23.30;42.60;;;;;;1547971;75;1947;-52
2021/06/03 10:28:19;;;;;;;;;;;23.40;42.50;;;;;;1563532;75;683;-52
2021/06/03 10:30:21;;;;;;;;;;;23.50;42.60;;;;;;1565304;75;1109;-52
2021/06/03 10:32:25;;;;;;;;;;;23.40;42.40;;;;;;1571233;75;751;-52
2021/06/03 10:34:26;;;;;;;;;;;23.40;42.50;;;;;;1560932;75;652;-52
2021/06/03 10:36:28;;;;;;;;;;;23.40;42.70;;;;;;1560965;75;737;-53
2021/06/03 10:38:31;;;;;;;;;;;23.40;42.70;;;;;;1562309;75;612;-53
2021/06/03 10:40:34;;;;;;;;;;;23.40;42.80;;;;;;1569633;74;1134;-54
2021/06/03 10:42:36;;;;;;;;;;;23.30;42.80;;;;;;1563223;75;782;-52
2021/06/03 10:44:38;;;;;;;;;;;23.30;43.20;;;;;;1558475;75;867;-54
2021/06/03 10:46:41;;;;;;;;;;;23.30;43.10;;;;;;1572975;74;1938;-52
2021/06/03 10:48:43;;;;;;;;;;;23.40;42.90;;;;;;1574354;75;2036;-53
2021/06/03 10:50:48;;;;;;;;;;;23.30;43.10;;;;;;1569940;75;1117;-52
2021/06/03 10:52:50;;;;;;;;;;;23.30;43.00;;;;;;1571922;75;790;-54
2021/06/03 10:54:53;;;;;;;;;;;23.30;43.10;;;;;;1574494;75;919;-53
2021/06/03 10:56:59;;;;;;;;;;;23.30;42.90;;;;;;1566830;75;752;-52
2021/06/03 10:59:03;;;;;;;;;;;23.30;42.80;;;;;;1577838;75;718;-53
2021/06/03 11:01:05;;;;;;;;;;;23.40;42.60;;;;;;1557315;75;1634;-55
2021/06/03 11:03:11;;;;;;;;;;;23.40;42.60;;;;;;1561963;75;710;-54
2021/06/03 11:05:23;;;;;;;;;;;23.50;43.90;;;;;;1554379;75;728;-53
2021/06/03 11:07:26;;;;;;;;;;;23.60;44.80;;;;;;1564497;75;1928;-53
2021/06/03 11:09:29;;;;;;;;;;;23.40;44.20;;;;;;1547657;75;1749;-53
2021/06/03 11:11:31;;;;;;;;;;;23.50;44.20;;;;;;1566426;74;1144;-55
2021/06/03 11:13:33;;;;;;;;;;;23.40;44.60;;;;;;1568846;75;772;-56
2021/06/03 11:15:36;;;;;;;;;;;23.40;44.00;;;;;;1565713;75;789;-53
2021/06/03 11:17:58;;;;;;;;;;;23.50;44.50;;;;;;1567221;75;1500;-54
2021/06/03 11:20:04;;;;;;;;;;;23.50;43.90;;;;;;1566437;75;955;-54
2021/06/03 11:22:08;;;;;;;;;;;23.50;43.90;;;;;;1554952;75;1531;-54
2021/06/03 11:24:10;;;;;;;;;;;23.50;43.70;;;;;;1552343;75;771;-60
2021/06/03 11:26:13;;;;;;;;;;;23.50;43.60;;;;;;1563130;75;1934;-56
2021/06/03 11:28:21;;;;;;;;;;;23.40;43.30;;;;;;1555693;75;1662;-54
2021/06/03 11:30:23;;;;;;;;;;;23.50;43.50;;;;;;1561675;75;1113;-54
2021/06/03 11:32:29;;;;;;;;;;;23.50;43.80;;;;;;1525523;76;1084;-53
2021/06/03 11:34:41;;;;;;;;;;;23.50;43.60;;;;;;1544249;75;750;-54
2021/06/03 11:36:45;;;;;;;;;;;23.50;43.50;;;;;;1559325;75;677;-56
2021/06/03 11:38:47;;;;;;;;;;;23.60;43.50;;;;;;1532877;75;772;-56
2021/06/03 11:40:48;;;;;;;;;;;23.60;43.30;;;;;;1564336;74;1049;-54
2021/06/03 11:42:52;;;;;;;;;;;23.60;43.20;;;;;;1556892;75;706;-55
2021/06/03 11:45:05;;;;;;;;;;;23.60;42.90;;;;;;1565090;75;1099;-54
2021/06/03 11:47:07;;;;;;;;;;;23.60;42.80;;;;;;1560887;75;1906;-56
2021/06/03 11:49:27;;;;;;;;;;;23.70;42.60;;;;;;1541807;75;736;-53
2021/06/03 11:51:29;;;;;;;;;;;23.70;42.50;;;;;;1554727;75;1164;-54
2021/06/03 11:53:31;;;;;;;;;;;23.70;42.20;;;;;;1566766;75;716;-54
2021/06/03 11:55:37;;;;;;;;;;;23.70;42.10;;;;;;1557570;75;779;-54
2021/06/03 11:57:39;;;;;;;;;;;23.80;41.90;;;;;;1554602;75;703;-52
2021/06/03 12:00:00;;;;;;;;;;;23.70;41.70;;;;;;1553201;75;1059;-55
2021/06/03 12:02:03;;;;;;;;;;;23.70;41.50;;;;;;1552390;75;1126;-53
2021/06/03 12:04:18;;;;;;;;;;;23.70;41.30;;;;;;1544575;75;966;-54
2021/06/03 12:06:31;;;;;;;;;;;23.80;41.30;;;;;;1570882;74;1919;-55
2021/06/03 12:08:34;;;;;;;;;;;23.70;41.30;;;;;;1558017;75;775;-55
2021/06/03 12:10:43;;;;;;;;;;;23.70;41.40;;;;;;1569454;75;1091;-54
2021/06/03 12:12:46;;;;;;;;;;;23.70;40.80;;;;;;1577987;75;752;-54